Decoded Metar for LEBT (VALENCIA in SPAIN) (IATA:N/A) | Meteo·Mobile Aviation Weather
aviador You're here:

LEBT Decoded Metar

VALENCIA in SPAIN
Report Time2019-10-19 23:00:00
UTC Time2019-10-19 23:14:42
Flight Rules vfr VFR
Wind320° at 03 kt
Visibility9999 m
Phenomena:N/A
Clouds:N/A
Expected CloudBase > 1,200 ft AGL from Temp-Dew spread
CeilingNone
Temp15°C (ISA 0)
Dew Point12°C (82% RH)
AAT14.5°C
QNH1006 hPa
Density Alt630 ft
Elevation164 ft
Report Wrong Elevation
Raw Report
METAR LEBT 192300Z AUTO 32003KT 300V010 9999 NCD 15/12 Q1006=

Extra information for LEBT:More info

Metar Taf Metar & Taf Last 4 Metars F.Rules Stats Wind Profile Meteogram Temp Stats Metar ALERT Operation Metar Decoded Social comments